sensor_id;sensor_type;location;lat;lon;timestamp;pressure;altitude;pressure_sealevel;temperature;humidity
55187;BME280;55457;52.002;5.464;2023-03-14T00:02:25;98640.84;;;22.43;41.43
55187;BME280;55457;52.002;5.464;2023-03-14T00:04:53;98642.75;;;22.43;41.38
55187;BME280;55457;52.002;5.464;2023-03-14T00:07:18;98641.97;;;22.42;41.25
55187;BME280;55457;52.002;5.464;2023-03-14T00:09:43;98640.03;;;22.43;41.10
55187;BME280;55457;52.002;5.464;2023-03-14T00:12:09;98649.31;;;22.42;41.13
55187;BME280;55457;52.002;5.464;2023-03-14T00:14:34;98640.34;;;22.41;41.14
55187;BME280;55457;52.002;5.464;2023-03-14T00:16:59;98639.56;;;22.40;41.11
55187;BME280;55457;52.002;5.464;2023-03-14T00:19:24;98632.53;;;22.39;41.22
55187;BME280;55457;52.002;5.464;2023-03-14T00:21:49;98623.56;;;22.39;40.84
55187;BME280;55457;52.002;5.464;2023-03-14T00:24:15;98634.41;;;22.39;40.79
55187;BME280;55457;52.002;5.464;2023-03-14T00:26:40;98632.03;;;22.37;40.74
55187;BME280;55457;52.002;5.464;2023-03-14T00:29:05;98634.75;;;22.37;40.63
55187;BME280;55457;52.002;5.464;2023-03-14T00:31:30;98632.34;;;22.36;40.69
55187;BME280;55457;52.002;5.464;2023-03-14T00:33:56;98633.94;;;22.37;40.54
55187;BME280;55457;52.002;5.464;2023-03-14T00:36:21;98633.94;;;22.37;40.78
55187;BME280;55457;52.002;5.464;2023-03-14T00:38:47;98635.84;;;22.36;40.88
55187;BME280;55457;52.002;5.464;2023-03-14T00:41:15;98637.78;;;22.36;40.75
55187;BME280;55457;52.002;5.464;2023-03-14T00:43:40;98630.75;;;22.35;40.70
55187;BME280;55457;52.002;5.464;2023-03-14T00:46:06;98637.78;;;22.36;40.73
55187;BME280;55457;52.002;5.464;2023-03-14T00:48:31;98635.38;;;22.34;40.67
55187;BME280;55457;52.002;5.464;2023-03-14T00:50:56;98626.41;;;22.34;40.51
55187;BME280;55457;52.002;5.464;2023-03-14T00:53:22;98631.03;;;22.33;40.40
55187;BME280;55457;52.002;5.464;2023-03-14T00:55:47;98639.19;;;22.33;40.34
55187;BME280;55457;52.002;5.464;2023-03-14T00:58:14;98648.44;;;22.32;40.32
55187;BME280;55457;52.002;5.464;2023-03-14T01:00:40;98651.94;;;22.33;40.33
55187;BME280;55457;52.002;5.464;2023-03-14T01:03:06;98644.13;;;22.31;40.44
55187;BME280;55457;52.002;5.464;2023-03-14T01:05:31;98654.97;;;22.31;40.24
55187;BME280;55457;52.002;5.464;2023-03-14T01:07:56;98641.41;;;22.31;40.18
55187;BME280;55457;52.002;5.464;2023-03-14T01:10:22;98649.56;;;22.31;40.08
55187;BME280;55457;52.002;5.464;2023-03-14T01:12:47;98649.88;;;22.30;40.51
55187;BME280;55457;52.002;5.464;2023-03-14T01:15:12;98661.53;;;22.30;40.36
55187;BME280;55457;52.002;5.464;2023-03-14T01:17:38;98663.72;;;22.28;40.54
55187;BME280;55457;52.002;5.464;2023-03-14T01:20:04;98667.22;;;22.29;40.35
55187;BME280;55457;52.002;5.464;2023-03-14T01:22:31;98664.53;;;22.29;40.54
55187;BME280;55457;52.002;5.464;2023-03-14T01:24:56;98668.34;;;22.28;40.27
55187;BME280;55457;52.002;5.464;2023-03-14T01:27:21;98666.44;;;22.28;40.33
55187;BME280;55457;52.002;5.464;2023-03-14T01:29:46;98665.63;;;22.28;40.52
55187;BME280;55457;52.002;5.464;2023-03-14T01:32:12;98661.31;;;22.27;40.32
55187;BME280;55457;52.002;5.464;2023-03-14T01:34:37;98661.31;;;22.27;40.48
55187;BME280;55457;52.002;5.464;2023-03-14T01:37:02;98657.00;;;22.26;40.32
55187;BME280;55457;52.002;5.464;2023-03-14T01:39:28;98648.88;;;22.26;40.66
55187;BME280;55457;52.002;5.464;2023-03-14T01:41:53;98649.19;;;22.24;40.74
55187;BME280;55457;52.002;5.464;2023-03-14T01:44:18;98650.00;;;22.25;40.42
55187;BME280;55457;52.002;5.464;2023-03-14T01:46:44;98661.63;;;22.25;40.46
55187;BME280;55457;52.002;5.464;2023-03-14T01:49:18;98645.66;;;22.24;40.46
55187;BME280;55457;52.002;5.464;2023-03-14T01:54:12;98634.31;;;22.22;40.68
55187;BME280;55457;52.002;5.464;2023-03-14T01:56:40;98617.25;;;22.21;40.61
55187;BME280;55457;52.002;5.464;2023-03-14T01:59:06;98613.41;;;22.22;40.64
55187;BME280;55457;52.002;5.464;2023-03-14T02:01:33;98618.03;;;22.22;40.60
55187;BME280;55457;52.002;5.464;2023-03-14T02:03:59;98623.78;;;22.20;40.68
55187;BME280;55457;52.002;5.464;2023-03-14T02:06:27;98618.34;;;22.20;40.82
55187;BME280;55457;52.002;5.464;2023-03-14T02:08:54;98618.34;;;22.20;40.84
55187;BME280;55457;52.002;5.464;2023-03-14T02:11:19;98626.81;;;22.19;40.85
55187;BME280;55457;52.002;5.464;2023-03-14T02:13:45;98613.25;;;22.19;40.84
55187;BME280;55457;52.002;5.464;2023-03-14T02:16:10;98607.81;;;22.19;40.72
55187;BME280;55457;52.002;5.464;2023-03-14T02:18:36;98603.47;;;22.18;40.92
55187;BME280;55457;52.002;5.464;2023-03-14T02:21:16;98595.34;;;22.18;40.65
55187;BME280;55457;52.002;5.464;2023-03-14T02:24:07;98601.88;;;22.17;40.84
55187;BME280;55457;52.002;5.464;2023-03-14T02:26:36;98601.88;;;22.17;40.94
55187;BME280;55457;52.002;5.464;2023-03-14T02:29:03;98600.28;;;22.16;40.92
55187;BME280;55457;52.002;5.464;2023-03-14T02:31:28;98616.56;;;22.16;40.72
55187;BME280;55457;52.002;5.464;2023-03-14T02:33:53;98603.00;;;22.16;40.99
55187;BME280;55457;52.002;5.464;2023-03-14T02:36:20;98596.47;;;22.17;41.06
55187;BME280;55457;52.002;5.464;2023-03-14T02:38:55;98596.47;;;22.17;41.14
55187;BME280;55457;52.002;5.464;2023-03-14T02:41:21;98595.66;;;22.16;41.08
55187;BME280;55457;52.002;5.464;2023-03-14T02:43:46;98583.22;;;22.15;40.97
55187;BME280;55457;52.002;5.464;2023-03-14T02:46:13;98584.00;;;22.16;40.81
55187;BME280;55457;52.002;5.464;2023-03-14T02:48:40;98592.94;;;22.16;41.10
55187;BME280;55457;52.002;5.464;2023-03-14T02:51:06;98582.41;;;22.14;41.02
55187;BME280;55457;52.002;5.464;2023-03-14T02:53:33;98585.13;;;22.14;40.94
55187;BME280;55457;52.002;5.464;2023-03-14T02:55:59;98577.00;;;22.14;40.88
55187;BME280;55457;52.002;5.464;2023-03-14T02:58:24;98582.41;;;22.14;40.98
55187;BME280;55457;52.002;5.464;2023-03-14T03:00:50;98584.31;;;22.14;40.94
55187;BME280;55457;52.002;5.464;2023-03-14T03:03:15;98586.25;;;22.13;41.12
55187;BME280;55457;52.002;5.464;2023-03-14T03:05:41;98573.75;;;22.12;41.12
55187;BME280;55457;52.002;5.464;2023-03-14T03:08:07;98578.91;;;22.14;41.04
55187;BME280;55457;52.002;5.464;2023-03-14T03:10:33;98586.25;;;22.13;41.20
55187;BME280;55457;52.002;5.464;2023-03-14T03:12:58;98580.81;;;22.13;41.20
55187;BME280;55457;52.002;5.464;2023-03-14T03:15:23;98580.00;;;22.13;41.05
55187;BME280;55457;52.002;5.464;2023-03-14T03:17:49;98573.47;;;22.14;40.92
55187;BME280;55457;52.002;5.464;2023-03-14T03:20:14;98572.69;;;22.13;40.89
55187;BME280;55457;52.002;5.464;2023-03-14T03:22:39;98562.63;;;22.14;40.88
55187;BME280;55457;52.002;5.464;2023-03-14T03:25:06;98561.81;;;22.13;41.01
55187;BME280;55457;52.002;5.464;2023-03-14T03:27:31;98559.13;;;22.13;40.86
55187;BME280;55457;52.002;5.464;2023-03-14T03:29:57;98568.84;;;22.14;40.95
55187;BME280;55457;52.002;5.464;2023-03-14T03:32:22;98547.75;;;22.11;40.87
55187;BME280;55457;52.002;5.464;2023-03-14T03:34:47;98555.28;;;22.14;40.90
55187;BME280;55457;52.002;5.464;2023-03-14T03:37:13;98558.78;;;22.15;40.81
55187;BME280;55457;52.002;5.464;2023-03-14T03:39:38;98549.88;;;22.14;40.94
55187;BME280;55457;52.002;5.464;2023-03-14T03:42:03;98559.28;;;22.17;40.92
55187;BME280;55457;52.002;5.464;2023-03-14T03:44:28;98549.22;;;22.18;40.95
55187;BME280;55457;52.002;5.464;2023-03-14T03:46:53;98546.50;;;22.18;41.07
55187;BME280;55457;52.002;5.464;2023-03-14T03:49:19;98550.84;;;22.19;41.12
55187;BME280;55457;52.002;5.464;2023-03-14T03:51:44;98541.88;;;22.18;40.90
55187;BME280;55457;52.002;5.464;2023-03-14T03:54:09;98550.84;;;22.19;40.86
55187;BME280;55457;52.002;5.464;2023-03-14T03:56:34;98557.06;;;22.19;41.25
55187;BME280;55457;52.002;5.464;2023-03-14T03:59:00;98550.84;;;22.19;40.81
55187;BME280;55457;52.002;5.464;2023-03-14T04:01:25;98538.09;;;22.19;40.85
55187;BME280;55457;52.002;5.464;2023-03-14T04:03:50;98544.31;;;22.20;40.78
55187;BME280;55457;52.002;5.464;2023-03-14T04:06:15;98546.69;;;22.21;41.02
55187;BME280;55457;52.002;5.464;2023-03-14T04:08:40;98548.63;;;22.21;40.77
55187;BME280;55457;52.002;5.464;2023-03-14T04:11:06;98561.84;;;22.22;41.15
55187;BME280;55457;52.002;5.464;2023-03-14T04:13:31;98558.81;;;22.24;40.69
55187;BME280;55457;52.002;5.464;2023-03-14T04:15:56;98565.88;;;22.25;40.73
55187;BME280;55457;52.002;5.464;2023-03-14T04:18:22;98566.69;;;22.25;40.73
55187;BME280;55457;52.002;5.464;2023-03-14T04:20:52;98560.44;;;22.25;40.61
55187;BME280;55457;52.002;5.464;2023-03-14T04:23:18;98559.34;;;22.26;40.72
55187;BME280;55457;52.002;5.464;2023-03-14T04:25:43;98562.06;;;22.26;40.98
55187;BME280;55457;52.002;5.464;2023-03-14T04:28:08;98560.13;;;22.26;40.64
55187;BME280;55457;52.002;5.464;2023-03-14T04:30:34;98557.41;;;22.26;40.82
55187;BME280;55457;52.002;5.464;2023-03-14T04:32:59;98557.91;;;22.28;40.73
55187;BME280;55457;52.002;5.464;2023-03-14T04:35:24;98554.38;;;22.28;40.59
55187;BME280;55457;52.002;5.464;2023-03-14T04:37:49;98544.34;;;22.28;40.67
55187;BME280;55457;52.002;5.464;2023-03-14T04:40:17;98545.13;;;22.29;40.59
55187;BME280;55457;52.002;5.464;2023-03-14T04:42:42;98534.28;;;22.29;40.59
55187;BME280;55457;52.002;5.464;2023-03-14T04:45:07;98535.91;;;22.30;40.64
55187;BME280;55457;52.002;5.464;2023-03-14T04:47:33;98534.28;;;22.29;40.58
55187;BME280;55457;52.002;5.464;2023-03-14T04:49:58;98541.63;;;22.28;40.90
55187;BME280;55457;52.002;5.464;2023-03-14T04:52:23;98535.91;;;22.30;40.45
55187;BME280;55457;52.002;5.464;2023-03-14T04:54:48;98540.22;;;22.31;40.79
55187;BME280;55457;52.002;5.464;2023-03-14T04:57:13;98542.13;;;22.30;40.67
55187;BME280;55457;52.002;5.464;2023-03-14T04:59:39;98537.50;;;22.31;40.55
55187;BME280;55457;52.002;5.464;2023-03-14T05:02:04;98537.50;;;22.31;40.76
55187;BME280;55457;52.002;5.464;2023-03-14T05:04:29;98533.66;;;22.32;40.52
55187;BME280;55457;52.002;5.464;2023-03-14T05:06:57;98532.06;;;22.31;40.57
55187;BME280;55457;52.002;5.464;2023-03-14T05:09:22;98532.06;;;22.31;40.45
55187;BME280;55457;52.002;5.464;2023-03-14T05:11:48;98524.25;;;22.29;40.66
55187;BME280;55457;52.002;5.464;2023-03-14T05:14:13;98524.72;;;22.31;40.64
55187;BME280;55457;52.002;5.464;2023-03-14T05:16:38;98522.81;;;22.32;40.54
55187;BME280;55457;52.002;5.464;2023-03-14T05:19:03;98521.69;;;22.33;40.65
55187;BME280;55457;52.002;5.464;2023-03-14T05:21:28;98527.91;;;22.33;40.53
55187;BME280;55457;52.002;5.464;2023-03-14T05:23:54;98515.97;;;22.34;40.51
55187;BME280;55457;52.002;5.464;2023-03-14T05:26:19;98509.72;;;22.34;40.65
55187;BME280;55457;52.002;5.464;2023-03-14T05:28:44;98512.94;;;22.36;40.55
55187;BME280;55457;52.002;5.464;2023-03-14T05:31:09;98517.25;;;22.37;40.66
55187;BME280;55457;52.002;5.464;2023-03-14T05:33:35;98515.34;;;22.37;40.45
55187;BME280;55457;52.002;5.464;2023-03-14T05:36:00;98512.31;;;22.39;40.41
55187;BME280;55457;52.002;5.464;2023-03-14T05:38:25;98508.50;;;22.40;40.41
55187;BME280;55457;52.002;5.464;2023-03-14T05:40:50;98510.09;;;22.41;40.64
55187;BME280;55457;52.002;5.464;2023-03-14T05:43:16;98519.84;;;22.42;40.58
55187;BME280;55457;52.002;5.464;2023-03-14T05:45:41;98511.69;;;22.42;40.56
55187;BME280;55457;52.002;5.464;2023-03-14T05:48:07;98515.19;;;22.43;40.40
55187;BME280;55457;52.002;5.464;2023-03-14T05:50:32;98523.81;;;22.45;40.45
55187;BME280;55457;52.002;5.464;2023-03-14T05:52:57;98517.59;;;22.44;40.66
55187;BME280;55457;52.002;5.464;2023-03-14T05:55:22;98523.03;;;22.44;40.69
55187;BME280;55457;52.002;5.464;2023-03-14T05:57:48;98514.09;;;22.44;40.43
55187;BME280;55457;52.002;5.464;2023-03-14T06:00:14;98517.59;;;22.44;40.48
55187;BME280;55457;52.002;5.464;2023-03-14T06:02:39;98504.81;;;22.45;40.56
55187;BME280;55457;52.002;5.464;2023-03-14T06:05:05;98514.88;;;22.44;40.48
55187;BME280;55457;52.002;5.464;2023-03-14T06:07:30;98511.06;;;22.45;40.63
55187;BME280;55457;52.002;5.464;2023-03-14T06:09:55;98505.66;;;22.45;40.72
55187;BME280;55457;52.002;5.464;2023-03-14T06:12:21;98503.72;;;22.46;40.48
55187;BME280;55457;52.002;5.464;2023-03-14T06:14:46;98508.38;;;22.45;40.72
55187;BME280;55457;52.002;5.464;2023-03-14T06:17:11;98511.06;;;22.45;40.41
55187;BME280;55457;52.002;5.464;2023-03-14T06:19:36;98511.88;;;22.46;40.44
55187;BME280;55457;52.002;5.464;2023-03-14T06:22:01;98511.06;;;22.45;40.42
55187;BME280;55457;52.002;5.464;2023-03-14T06:24:27;98507.53;;;22.45;40.59
55187;BME280;55457;52.002;5.464;2023-03-14T06:26:52;98516.50;;;22.45;40.83
55187;BME280;55457;52.002;5.464;2023-03-14T06:29:17;98518.38;;;22.45;40.78
55187;BME280;55457;52.002;5.464;2023-03-14T06:31:42;98514.09;;;22.44;40.76
55187;BME280;55457;52.002;5.464;2023-03-14T06:34:07;98539.63;;;22.43;40.63
55187;BME280;55457;52.002;5.464;2023-03-14T06:36:33;98573.00;;;22.43;40.47
55187;BME280;55457;52.002;5.464;2023-03-14T06:38:58;98597.41;;;22.43;40.57
55187;BME280;55457;52.002;5.464;2023-03-14T06:41:23;98604.75;;;22.43;40.66
55187;BME280;55457;52.002;5.464;2023-03-14T06:43:50;98611.78;;;22.44;40.60
55187;BME280;55457;52.002;5.464;2023-03-14T06:46:16;98616.41;;;22.43;40.92
55187;BME280;55457;52.002;5.464;2023-03-14T06:48:41;98634.00;;;22.46;40.92
55187;BME280;55457;52.002;5.464;2023-03-14T06:51:06;98629.97;;;22.43;40.70
55187;BME280;55457;52.002;5.464;2023-03-14T06:53:32;98641.34;;;22.45;40.96
55187;BME280;55457;52.002;5.464;2023-03-14T06:55:57;98642.94;;;22.46;40.74
55187;BME280;55457;52.002;5.464;2023-03-14T06:58:22;98648.38;;;22.46;40.77
55187;BME280;55457;52.002;5.464;2023-03-14T07:00:47;98652.69;;;22.47;40.89
55187;BME280;55457;52.002;5.464;2023-03-14T07:03:13;98670.56;;;22.48;40.76
55187;BME280;55457;52.002;5.464;2023-03-14T07:05:38;98673.28;;;22.48;40.94
55187;BME280;55457;52.002;5.464;2023-03-14T07:08:05;98685.75;;;22.49;40.96
55187;BME280;55457;52.002;5.464;2023-03-14T07:10:30;98690.38;;;22.49;40.87
55187;BME280;55457;52.002;5.464;2023-03-14T07:12:56;98699.31;;;22.49;40.72
55187;BME280;55457;52.002;5.464;2023-03-14T07:15:21;98690.38;;;22.49;41.09
55187;BME280;55457;52.002;5.464;2023-03-14T07:17:46;98705.06;;;22.48;41.22
55187;BME280;55457;52.002;5.464;2023-03-14T07:20:13;98712.72;;;22.46;41.03
55187;BME280;55457;52.002;5.464;2023-03-14T07:22:38;98722.78;;;22.45;41.06
55187;BME280;55457;52.002;5.464;2023-03-14T07:25:03;98732.00;;;22.44;40.99
55187;BME280;55457;52.002;5.464;2023-03-14T07:27:29;98751.31;;;22.43;40.93
55187;BME280;55457;52.002;5.464;2023-03-14T07:29:54;98763.78;;;22.44;41.16
55187;BME280;55457;52.002;5.464;2023-03-14T07:32:19;98774.16;;;22.42;41.19
55187;BME280;55457;52.002;5.464;2023-03-14T07:34:44;98779.25;;;22.43;41.13
55187;BME280;55457;52.002;5.464;2023-03-14T07:37:09;98784.69;;;22.43;40.91
55187;BME280;55457;52.002;5.464;2023-03-14T07:39:35;98800.97;;;22.43;40.76
55187;BME280;55457;52.002;5.464;2023-03-14T07:42:00;98810.72;;;22.44;40.90
55187;BME280;55457;52.002;5.464;2023-03-14T07:44:25;98814.53;;;22.43;40.92
55187;BME280;55457;52.002;5.464;2023-03-14T07:46:51;98829.72;;;22.44;40.78
55187;BME280;55457;52.002;5.464;2023-03-14T07:49:16;98835.13;;;22.44;40.78
55187;BME280;55457;52.002;5.464;2023-03-14T07:51:41;98842.19;;;22.45;41.03
55187;BME280;55457;52.002;5.464;2023-03-14T07:54:08;98850.34;;;22.45;40.72
55187;BME280;55457;52.002;5.464;2023-03-14T07:56:34;98862.00;;;22.46;41.01
55187;BME280;55457;52.002;5.464;2023-03-14T07:58:59;98867.13;;;22.47;40.77
55187;BME280;55457;52.002;5.464;2023-03-14T08:01:24;98889.13;;;22.46;40.83
55187;BME280;55457;52.002;5.464;2023-03-14T08:03:49;98898.09;;;22.46;40.64
55187;BME280;55457;52.002;5.464;2023-03-14T08:06:15;98910.53;;;22.47;40.78
55187;BME280;55457;52.002;5.464;2023-03-14T08:08:40;98915.16;;;22.47;40.81
55187;BME280;55457;52.002;5.464;2023-03-14T08:11:05;98929.84;;;22.46;40.57
55187;BME280;55457;52.002;5.464;2023-03-14T08:13:33;98942.31;;;22.47;40.62
55187;BME280;55457;52.002;5.464;2023-03-14T08:15:58;98948.53;;;22.47;40.66
55187;BME280;55457;52.002;5.464;2023-03-14T08:18:23;98956.69;;;22.47;40.73
55187;BME280;55457;52.002;5.464;2023-03-14T08:20:49;98976.28;;;22.44;40.66
55187;BME280;55457;52.002;5.464;2023-03-14T08:23:14;98980.72;;;22.40;41.04
55187;BME280;55457;52.002;5.464;2023-03-14T08:25:39;99006.22;;;22.39;41.50
55187;BME280;55457;52.002;5.464;2023-03-14T08:28:04;99013.56;;;22.38;41.40
55187;BME280;55457;52.002;5.464;2023-03-14T08:30:29;99028.47;;;22.41;41.28
55187;BME280;55457;52.002;5.464;2023-03-14T08:32:58;99039.81;;;22.43;41.20
55187;BME280;55457;52.002;5.464;2023-03-14T08:35:23;99058.50;;;22.45;41.52
55187;BME280;55457;52.002;5.464;2023-03-14T08:37:49;99064.78;;;22.45;41.12
55187;BME280;55457;52.002;5.464;2023-03-14T08:40:14;99082.66;;;22.46;41.42
55187;BME280;55457;52.002;5.464;2023-03-14T08:42:40;99089.69;;;22.47;41.48
55187;BME280;55457;52.002;5.464;2023-03-14T08:45:08;99104.88;;;22.48;41.17
55187;BME280;55457;52.002;5.464;2023-03-14T08:47:34;99097.75;;;22.52;41.34
55187;BME280;55457;52.002;5.464;2023-03-14T08:49:59;99117.53;;;22.53;41.32
55187;BME280;55457;52.002;5.464;2023-03-14T08:52:25;99122.09;;;22.57;41.25
55187;BME280;55457;52.002;5.464;2023-03-14T08:54:50;99130.72;;;22.59;41.34
55187;BME280;55457;52.002;5.464;2023-03-14T08:57:15;99145.31;;;22.63;41.13
55187;BME280;55457;52.002;5.464;2023-03-14T08:59:40;99149.63;;;22.64;41.12
55187;BME280;55457;52.002;5.464;2023-03-14T09:02:06;99166.72;;;22.65;41.25
55187;BME280;55457;52.002;5.464;2023-03-14T09:04:31;99183.25;;;22.69;41.07
55187;BME280;55457;52.002;5.464;2023-03-14T09:06:56;99193.53;;;22.72;41.06
55187;BME280;55457;52.002;5.464;2023-03-14T09:09:23;99204.38;;;22.72;41.22
55187;BME280;55457;52.002;5.464;2023-03-14T09:11:48;99204.38;;;22.72;40.87
55187;BME280;55457;52.002;5.464;2023-03-14T09:14:13;99221.75;;;22.71;40.86
55187;BME280;55457;52.002;5.464;2023-03-14T09:16:39;99215.81;;;22.69;41.09
55187;BME280;55457;52.002;5.464;2023-03-14T09:19:04;99235.34;;;22.71;41.12
55187;BME280;55457;52.002;5.464;2023-03-14T09:21:30;99242.41;;;22.72;41.10
55187;BME280;55457;52.002;5.464;2023-03-14T09:23:55;99247.84;;;22.72;41.19
55187;BME280;55457;52.002;5.464;2023-03-14T09:26:20;99247.84;;;22.72;41.15
55187;BME280;55457;52.002;5.464;2023-03-14T09:28:46;99269.56;;;22.72;41.03
55187;BME280;55457;52.002;5.464;2023-03-14T09:31:12;99275.50;;;22.74;40.88
55187;BME280;55457;52.002;5.464;2023-03-14T09:33:37;99290.66;;;22.75;41.06
55187;BME280;55457;52.002;5.464;2023-03-14T09:36:03;99299.94;;;22.74;40.91
55187;BME280;55457;52.002;5.464;2023-03-14T09:38:28;99315.91;;;22.75;41.24
55187;BME280;55457;52.002;5.464;2023-03-14T09:40:54;99324.38;;;22.74;41.21
55187;BME280;55457;52.002;5.464;2023-03-14T09:43:20;99345.59;;;22.72;41.12
55187;BME280;55457;52.002;5.464;2023-03-14T09:45:47;99350.22;;;22.71;41.29
55187;BME280;55457;52.002;5.464;2023-03-14T09:48:20;99348.31;;;22.72;40.95
55187;BME280;55457;52.002;5.464;2023-03-14T09:50:48;99364.59;;;22.72;41.17
55187;BME280;55457;52.002;5.464;2023-03-14T09:53:16;99367.31;;;22.72;41.48
55187;BME280;55457;52.002;5.464;2023-03-14T09:55:42;99384.19;;;22.69;41.26
55187;BME280;55457;52.002;5.464;2023-03-14T09:58:19;99389.63;;;22.69;41.56
55187;BME280;55457;52.002;5.464;2023-03-14T10:00:44;99393.44;;;22.67;41.46
55187;BME280;55457;52.002;5.464;2023-03-14T10:05:38;99413.56;;;22.66;41.34
55187;BME280;55457;52.002;5.464;2023-03-14T10:08:04;99419.50;;;22.69;41.19
55187;BME280;55457;52.002;5.464;2023-03-14T10:10:29;99422.22;;;22.69;41.30
55187;BME280;55457;52.002;5.464;2023-03-14T10:12:59;99435.78;;;22.69;41.31
55187;BME280;55457;52.002;5.464;2023-03-14T10:15:30;99446.66;;;22.69;41.37
55187;BME280;55457;52.002;5.464;2023-03-14T10:17:58;99453.19;;;22.67;41.31
55187;BME280;55457;52.002;5.464;2023-03-14T10:20:42;99482.53;;;22.65;41.04
55187;BME280;55457;52.002;5.464;2023-03-14T10:25:37;99521.66;;;22.64;41.25
55187;BME280;55457;52.002;5.464;2023-03-14T10:28:03;99531.41;;;22.65;40.99
55187;BME280;55457;52.002;5.464;2023-03-14T10:35:43;99545.50;;;22.67;41.24
55187;BME280;55457;52.002;5.464;2023-03-14T10:38:12;99554.16;;;22.70;40.95
55187;BME280;55457;52.002;5.464;2023-03-14T10:40:38;99566.06;;;22.74;41.23
55187;BME280;55457;52.002;5.464;2023-03-14T10:43:05;99574.72;;;22.76;41.03
55187;BME280;55457;52.002;5.464;2023-03-14T10:45:35;99592.06;;;22.80;40.80
55187;BME280;55457;52.002;5.464;2023-03-14T10:50:39;99602.59;;;22.86;41.01
55187;BME280;55457;52.002;5.464;2023-03-14T10:53:12;99611.00;;;22.90;41.05
55187;BME280;55457;52.002;5.464;2023-03-14T10:55:42;99615.34;;;22.91;40.70
55187;BME280;55457;52.002;5.464;2023-03-14T10:58:21;99625.38;;;22.90;40.62
55187;BME280;55457;52.002;5.464;2023-03-14T11:00:51;99643.09;;;22.88;41.09
55187;BME280;55457;52.002;5.464;2023-03-14T11:03:16;99665.91;;;22.87;41.02
55187;BME280;55457;52.002;5.464;2023-03-14T11:05:47;99669.97;;;22.84;40.79
55187;BME280;55457;52.002;5.464;2023-03-14T11:08:20;99682.25;;;22.82;40.97
55187;BME280;55457;52.002;5.464;2023-03-14T11:10:47;99684.16;;;22.81;40.92
55187;BME280;55457;52.002;5.464;2023-03-14T11:13:15;99695.03;;;22.81;40.66
55187;BME280;55457;52.002;5.464;2023-03-14T11:15:45;99696.91;;;22.81;40.64
55187;BME280;55457;52.002;5.464;2023-03-14T11:18:30;99712.13;;;22.82;40.60
55187;BME280;55457;52.002;5.464;2023-03-14T11:20:59;99727.31;;;22.83;40.58
55187;BME280;55457;52.002;5.464;2023-03-14T11:23:31;99737.09;;;22.84;40.51
55187;BME280;55457;52.002;5.464;2023-03-14T11:26:19;99734.38;;;22.84;40.25
55187;BME280;55457;52.002;5.464;2023-03-14T11:28:50;99747.94;;;22.89;40.02
55187;BME280;55457;52.002;5.464;2023-03-14T11:33:56;99752.56;;;23.12;40.18
55187;BME280;55457;52.002;5.464;2023-03-14T11:36:39;99770.13;;;23.25;39.77
55187;BME280;55457;52.002;5.464;2023-03-14T11:39:15;99772.75;;;23.35;39.65
55187;BME280;55457;52.002;5.464;2023-03-14T11:41:43;99783.91;;;23.34;39.18
55187;BME280;55457;52.002;5.464;2023-03-14T11:44:14;99790.72;;;23.31;38.87
55187;BME280;55457;52.002;5.464;2023-03-14T11:46:46;99791.72;;;23.40;38.95
55187;BME280;55457;52.002;5.464;2023-03-14T11:49:18;99794.03;;;23.52;38.91
55187;BME280;55457;52.002;5.464;2023-03-14T11:51:46;99791.81;;;23.54;39.43
55187;BME280;55457;52.002;5.464;2023-03-14T11:54:16;99809.53;;;23.52;39.40
55187;BME280;55457;52.002;5.464;2023-03-14T11:56:47;99816.38;;;23.49;39.82
55187;BME280;55457;52.002;5.464;2023-03-14T11:59:17;99815.28;;;23.50;39.50
55187;BME280;55457;52.002;5.464;2023-03-14T12:01:54;99819.53;;;23.56;39.75
55187;BME280;55457;52.002;5.464;2023-03-14T12:08:00;99836.28;;;23.68;39.41
55187;BME280;55457;52.002;5.464;2023-03-14T12:09:51;99840.81;;;23.78;39.43
55187;BME280;55457;52.002;5.464;2023-03-14T12:12:19;99845.88;;;23.85;39.52
55187;BME280;55457;52.002;5.464;2023-03-14T12:14:47;99862.63;;;23.97;39.42
55187;BME280;55457;52.002;5.464;2023-03-14T12:20:01;99868.31;;;24.19;39.16
55187;BME280;55457;52.002;5.464;2023-03-14T12:22:30;99865.31;;;24.21;39.07
55187;BME280;55457;52.002;5.464;2023-03-14T12:24:59;99872.09;;;24.24;39.32
55187;BME280;55457;52.002;5.464;2023-03-14T12:35:36;99894.81;;;24.57;38.02
55187;BME280;55457;52.002;5.464;2023-03-14T12:38:07;99893.03;;;24.66;38.01
55187;BME280;55457;52.002;5.464;2023-03-14T12:40:39;99900.53;;;24.74;37.60
55187;BME280;55457;52.002;5.464;2023-03-14T12:43:10;99903.72;;;24.81;37.82
55187;BME280;55457;52.002;5.464;2023-03-14T12:46:08;99903.84;;;24.90;37.57
55187;BME280;55457;52.002;5.464;2023-03-14T12:48:33;99917.13;;;24.96;37.62
55187;BME280;55457;52.002;5.464;2023-03-14T12:51:03;99915.63;;;25.04;37.46
55187;BME280;55457;52.002;5.464;2023-03-14T12:59:32;99945.41;;;25.19;37.14
55187;BME280;55457;52.002;5.464;2023-03-14T13:01:33;99948.84;;;25.25;37.04
55187;BME280;55457;52.002;5.464;2023-03-14T13:04:02;99949.88;;;25.29;36.66
55187;BME280;55457;52.002;5.464;2023-03-14T13:12:11;99973.22;;;25.35;36.65
55187;BME280;55457;52.002;5.464;2023-03-14T13:14:41;99986.56;;;25.37;36.45
55187;BME280;55457;52.002;5.464;2023-03-14T13:17:14;99985.47;;;25.38;36.33
55187;BME280;55457;52.002;5.464;2023-03-14T13:19:40;99996.97;;;25.35;36.25
55187;BME280;55457;52.002;5.464;2023-03-14T13:22:16;99996.59;;;25.41;36.21
55187;BME280;55457;52.002;5.464;2023-03-14T13:24:44;100007.13;;;25.48;36.21
55187;BME280;55457;52.002;5.464;2023-03-14T13:27:15;100010.88;;;25.52;36.13
55187;BME280;55457;52.002;5.464;2023-03-14T13:29:43;100022.81;;;25.56;36.19
55187;BME280;55457;52.002;5.464;2023-03-14T13:32:19;100021.91;;;25.61;35.99
55187;BME280;55457;52.002;5.464;2023-03-14T13:34:45;100037.88;;;25.54;35.84
55187;BME280;55457;52.002;5.464;2023-03-14T13:37:22;100045.81;;;25.50;35.99
55187;BME280;55457;52.002;5.464;2023-03-14T13:39:51;100053.59;;;25.43;36.16
55187;BME280;55457;52.002;5.464;2023-03-14T13:42:17;100060.81;;;25.34;36.08